Magnolia Beach, Texas
Current Conditions -  °F | °C
As of 3:15 AM on Wednesday 26 Nov 2014 (Local Time) from KPKV Reporting Station
Clear Clear  
Wind Chill: 43°   Ceiling: Unl
Heat Index: 46°   Visibility: 10mi
Dew Point: 43°   Wind: 5mph
Humidity: 90%   Direction: 200°SSW
Pressure: 30.23"   Gusts: NA
Location:  28.5342°N, 96.663°W
Report Text: KPKV 260915Z AUTO 20004KT 10SM CLR 08/06 A3023 RMK AO2 T00760061
Loading
Personal Weather Stations






























Interactive Weather Map New forecast layout! Learn more

10-Day Weather Forecast

Advertisements
Track Severe Weather on mobile